sensor_id;sensor_type;location;lat;lon;timestamp;P1;durP1;ratioP1;P2;durP2;ratioP2
58731;SDS011;44508;44.626;21.182;2022-11-14T00:00:35;48.63;;;25.98;;
58731;SDS011;44508;44.626;21.182;2022-11-14T00:03:04;43.85;;;25.05;;
58731;SDS011;44508;44.626;21.182;2022-11-14T00:05:30;40.08;;;25.02;;
58731;SDS011;44508;44.626;21.182;2022-11-14T00:07:57;62.45;;;29.90;;
58731;SDS011;44508;44.626;21.182;2022-11-14T00:10:23;61.50;;;31.15;;
58731;SDS011;44508;44.626;21.182;2022-11-14T00:12:49;54.38;;;30.35;;
58731;SDS011;44508;44.626;21.182;2022-11-14T00:15:15;58.88;;;28.70;;
58731;SDS011;44508;44.626;21.182;2022-11-14T00:17:41;57.35;;;29.60;;
58731;SDS011;44508;44.626;21.182;2022-11-14T00:20:07;57.90;;;29.25;;
58731;SDS011;44508;44.626;21.182;2022-11-14T00:22:34;58.58;;;28.63;;
58731;SDS011;44508;44.626;21.182;2022-11-14T00:25:00;51.05;;;27.50;;
58731;SDS011;44508;44.626;21.182;2022-11-14T00:27:26;46.70;;;26.23;;
58731;SDS011;44508;44.626;21.182;2022-11-14T00:29:52;49.88;;;27.55;;
58731;SDS011;44508;44.626;21.182;2022-11-14T00:32:18;48.72;;;26.63;;
58731;SDS011;44508;44.626;21.182;2022-11-14T00:34:46;47.88;;;24.88;;
58731;SDS011;44508;44.626;21.182;2022-11-14T00:37:12;40.35;;;23.85;;
58731;SDS011;44508;44.626;21.182;2022-11-14T00:39:38;50.40;;;27.13;;
58731;SDS011;44508;44.626;21.182;2022-11-14T00:42:04;53.03;;;27.60;;
58731;SDS011;44508;44.626;21.182;2022-11-14T00:44:30;62.92;;;28.77;;
58731;SDS011;44508;44.626;21.182;2022-11-14T00:46:56;50.28;;;27.98;;
58731;SDS011;44508;44.626;21.182;2022-11-14T00:49:22;52.15;;;26.38;;
58731;SDS011;44508;44.626;21.182;2022-11-14T00:51:48;39.28;;;23.20;;
58731;SDS011;44508;44.626;21.182;2022-11-14T00:54:15;41.70;;;23.20;;
58731;SDS011;44508;44.626;21.182;2022-11-14T00:56:41;37.47;;;22.85;;
58731;SDS011;44508;44.626;21.182;2022-11-14T00:59:07;34.20;;;21.75;;
58731;SDS011;44508;44.626;21.182;2022-11-14T01:01:33;34.58;;;21.38;;
58731;SDS011;44508;44.626;21.182;2022-11-14T01:03:59;30.88;;;21.20;;
58731;SDS011;44508;44.626;21.182;2022-11-14T01:06:25;33.75;;;21.50;;
58731;SDS011;44508;44.626;21.182;2022-11-14T01:08:51;31.30;;;21.15;;
58731;SDS011;44508;44.626;21.182;2022-11-14T01:11:18;34.58;;;23.20;;
58731;SDS011;44508;44.626;21.182;2022-11-14T01:13:45;42.42;;;24.83;;
58731;SDS011;44508;44.626;21.182;2022-11-14T01:16:11;43.83;;;25.98;;
58731;SDS011;44508;44.626;21.182;2022-11-14T01:18:37;45.85;;;25.58;;
58731;SDS011;44508;44.626;21.182;2022-11-14T01:21:04;51.42;;;26.75;;
58731;SDS011;44508;44.626;21.182;2022-11-14T01:23:31;48.42;;;24.58;;
58731;SDS011;44508;44.626;21.182;2022-11-14T01:26:04;46.72;;;26.38;;
58731;SDS011;44508;44.626;21.182;2022-11-14T01:28:30;48.85;;;26.85;;
58731;SDS011;44508;44.626;21.182;2022-11-14T01:31:06;54.80;;;28.73;;
58731;SDS011;44508;44.626;21.182;2022-11-14T01:33:32;66.50;;;32.60;;
58731;SDS011;44508;44.626;21.182;2022-11-14T01:35:58;71.15;;;33.10;;
58731;SDS011;44508;44.626;21.182;2022-11-14T01:38:24;70.22;;;33.70;;
58731;SDS011;44508;44.626;21.182;2022-11-14T01:40:50;78.28;;;35.92;;
58731;SDS011;44508;44.626;21.182;2022-11-14T01:45:46;82.15;;;35.33;;
58731;SDS011;44508;44.626;21.182;2022-11-14T01:48:17;79.22;;;34.55;;
58731;SDS011;44508;44.626;21.182;2022-11-14T01:50:46;66.28;;;32.50;;
58731;SDS011;44508;44.626;21.182;2022-11-14T01:53:12;64.30;;;32.25;;
58731;SDS011;44508;44.626;21.182;2022-11-14T01:55:38;52.88;;;27.52;;
58731;SDS011;44508;44.626;21.182;2022-11-14T01:58:04;46.13;;;26.70;;
58731;SDS011;44508;44.626;21.182;2022-11-14T02:00:31;39.90;;;22.27;;
58731;SDS011;44508;44.626;21.182;2022-11-14T02:02:57;34.00;;;20.73;;
58731;SDS011;44508;44.626;21.182;2022-11-14T02:05:24;33.05;;;20.65;;
58731;SDS011;44508;44.626;21.182;2022-11-14T02:07:51;30.30;;;20.30;;
58731;SDS011;44508;44.626;21.182;2022-11-14T02:10:18;28.75;;;19.27;;
58731;SDS011;44508;44.626;21.182;2022-11-14T02:12:44;28.42;;;19.50;;
58731;SDS011;44508;44.626;21.182;2022-11-14T02:15:11;31.48;;;20.55;;
58731;SDS011;44508;44.626;21.182;2022-11-14T02:17:37;29.90;;;20.08;;
58731;SDS011;44508;44.626;21.182;2022-11-14T02:22:31;34.50;;;21.30;;
58731;SDS011;44508;44.626;21.182;2022-11-14T02:24:57;33.20;;;22.13;;
58731;SDS011;44508;44.626;21.182;2022-11-14T02:27:23;40.63;;;23.52;;
58731;SDS011;44508;44.626;21.182;2022-11-14T02:29:49;34.75;;;21.95;;
58731;SDS011;44508;44.626;21.182;2022-11-14T02:32:15;38.08;;;21.23;;
58731;SDS011;44508;44.626;21.182;2022-11-14T02:34:41;33.97;;;20.75;;
58731;SDS011;44508;44.626;21.182;2022-11-14T02:37:07;31.70;;;21.75;;
58731;SDS011;44508;44.626;21.182;2022-11-14T02:39:33;34.63;;;22.33;;
58731;SDS011;44508;44.626;21.182;2022-11-14T02:41:59;32.22;;;21.23;;
58731;SDS011;44508;44.626;21.182;2022-11-14T02:44:25;31.83;;;20.70;;
58731;SDS011;44508;44.626;21.182;2022-11-14T02:46:52;28.45;;;20.67;;
58731;SDS011;44508;44.626;21.182;2022-11-14T02:49:18;30.92;;;20.30;;
58731;SDS011;44508;44.626;21.182;2022-11-14T02:51:44;30.73;;;20.70;;
58731;SDS011;44508;44.626;21.182;2022-11-14T02:54:10;30.52;;;20.90;;
58731;SDS011;44508;44.626;21.182;2022-11-14T02:56:36;28.83;;;19.67;;
58731;SDS011;44508;44.626;21.182;2022-11-14T02:59:02;28.30;;;20.38;;
58731;SDS011;44508;44.626;21.182;2022-11-14T03:01:29;33.40;;;20.90;;
58731;SDS011;44508;44.626;21.182;2022-11-14T03:03:55;30.38;;;20.48;;
58731;SDS011;44508;44.626;21.182;2022-11-14T03:06:21;61.33;;;29.73;;
58731;SDS011;44508;44.626;21.182;2022-11-14T03:08:47;72.15;;;36.55;;
58731;SDS011;44508;44.626;21.182;2022-11-14T03:11:13;81.57;;;39.60;;
58731;SDS011;44508;44.626;21.182;2022-11-14T03:13:39;139.02;;;54.88;;
58731;SDS011;44508;44.626;21.182;2022-11-14T03:16:07;144.20;;;58.20;;
58731;SDS011;44508;44.626;21.182;2022-11-14T03:18:33;130.05;;;55.17;;
58731;SDS011;44508;44.626;21.182;2022-11-14T03:21:06;106.30;;;46.05;;
58731;SDS011;44508;44.626;21.182;2022-11-14T03:23:33;100.78;;;43.00;;
58731;SDS011;44508;44.626;21.182;2022-11-14T03:25:59;93.18;;;41.50;;
58731;SDS011;44508;44.626;21.182;2022-11-14T03:28:26;70.70;;;34.38;;
58731;SDS011;44508;44.626;21.182;2022-11-14T03:30:52;59.65;;;29.95;;
58731;SDS011;44508;44.626;21.182;2022-11-14T03:33:18;41.67;;;24.63;;
58731;SDS011;44508;44.626;21.182;2022-11-14T03:35:44;38.53;;;22.77;;
58731;SDS011;44508;44.626;21.182;2022-11-14T03:38:10;35.08;;;23.02;;
58731;SDS011;44508;44.626;21.182;2022-11-14T03:40:39;40.95;;;22.27;;
58731;SDS011;44508;44.626;21.182;2022-11-14T03:43:05;36.20;;;21.92;;
58731;SDS011;44508;44.626;21.182;2022-11-14T03:45:31;35.88;;;23.23;;
58731;SDS011;44508;44.626;21.182;2022-11-14T03:47:58;35.47;;;22.80;;
58731;SDS011;44508;44.626;21.182;2022-11-14T03:50:24;43.15;;;23.85;;
58731;SDS011;44508;44.626;21.182;2022-11-14T03:52:50;42.67;;;23.75;;
58731;SDS011;44508;44.626;21.182;2022-11-14T03:55:16;39.90;;;23.02;;
58731;SDS011;44508;44.626;21.182;2022-11-14T03:57:42;45.63;;;24.98;;
58731;SDS011;44508;44.626;21.182;2022-11-14T04:00:08;46.15;;;26.85;;
58731;SDS011;44508;44.626;21.182;2022-11-14T04:02:34;56.10;;;29.88;;
58731;SDS011;44508;44.626;21.182;2022-11-14T04:05:00;54.35;;;27.80;;
58731;SDS011;44508;44.626;21.182;2022-11-14T04:07:26;60.28;;;31.05;;
58731;SDS011;44508;44.626;21.182;2022-11-14T04:09:52;58.85;;;30.30;;
58731;SDS011;44508;44.626;21.182;2022-11-14T04:12:18;62.00;;;30.90;;
58731;SDS011;44508;44.626;21.182;2022-11-14T04:14:44;68.13;;;32.92;;
58731;SDS011;44508;44.626;21.182;2022-11-14T04:17:10;65.07;;;34.72;;
58731;SDS011;44508;44.626;21.182;2022-11-14T04:19:36;68.90;;;37.58;;
58731;SDS011;44508;44.626;21.182;2022-11-14T04:22:03;59.78;;;37.55;;
58731;SDS011;44508;44.626;21.182;2022-11-14T04:24:29;66.63;;;39.42;;
58731;SDS011;44508;44.626;21.182;2022-11-14T04:26:55;66.10;;;37.75;;
58731;SDS011;44508;44.626;21.182;2022-11-14T04:29:21;65.22;;;37.17;;
58731;SDS011;44508;44.626;21.182;2022-11-14T04:31:47;73.60;;;39.13;;
58731;SDS011;44508;44.626;21.182;2022-11-14T04:34:13;73.22;;;42.03;;
58731;SDS011;44508;44.626;21.182;2022-11-14T04:36:39;73.57;;;41.33;;
58731;SDS011;44508;44.626;21.182;2022-11-14T04:39:05;61.90;;;36.53;;
58731;SDS011;44508;44.626;21.182;2022-11-14T04:41:31;58.72;;;35.25;;
58731;SDS011;44508;44.626;21.182;2022-11-14T04:43:57;60.60;;;34.60;;
58731;SDS011;44508;44.626;21.182;2022-11-14T04:46:23;68.82;;;39.10;;
58731;SDS011;44508;44.626;21.182;2022-11-14T04:48:49;64.32;;;36.72;;
58731;SDS011;44508;44.626;21.182;2022-11-14T04:51:15;65.32;;;37.22;;
58731;SDS011;44508;44.626;21.182;2022-11-14T04:53:41;68.10;;;38.03;;
58731;SDS011;44508;44.626;21.182;2022-11-14T04:56:07;66.45;;;39.05;;
58731;SDS011;44508;44.626;21.182;2022-11-14T04:58:33;70.32;;;38.15;;
58731;SDS011;44508;44.626;21.182;2022-11-14T05:01:05;61.60;;;35.42;;
58731;SDS011;44508;44.626;21.182;2022-11-14T05:03:31;64.82;;;35.80;;
58731;SDS011;44508;44.626;21.182;2022-11-14T05:06:00;60.65;;;33.92;;
58731;SDS011;44508;44.626;21.182;2022-11-14T05:08:26;68.38;;;34.28;;
58731;SDS011;44508;44.626;21.182;2022-11-14T05:10:52;68.68;;;35.15;;
58731;SDS011;44508;44.626;21.182;2022-11-14T05:13:18;68.82;;;35.40;;
58731;SDS011;44508;44.626;21.182;2022-11-14T05:15:44;64.25;;;34.75;;
58731;SDS011;44508;44.626;21.182;2022-11-14T05:18:10;69.03;;;33.60;;
58731;SDS011;44508;44.626;21.182;2022-11-14T05:20:36;72.72;;;35.95;;
58731;SDS011;44508;44.626;21.182;2022-11-14T05:23:03;70.60;;;34.83;;
58731;SDS011;44508;44.626;21.182;2022-11-14T05:25:29;68.80;;;36.13;;
58731;SDS011;44508;44.626;21.182;2022-11-14T05:27:55;69.18;;;36.33;;
58731;SDS011;44508;44.626;21.182;2022-11-14T05:30:21;72.43;;;38.65;;
58731;SDS011;44508;44.626;21.182;2022-11-14T05:32:47;71.68;;;39.90;;
58731;SDS011;44508;44.626;21.182;2022-11-14T05:35:13;70.05;;;38.92;;
58731;SDS011;44508;44.626;21.182;2022-11-14T05:37:39;75.53;;;42.08;;
58731;SDS011;44508;44.626;21.182;2022-11-14T05:40:05;76.97;;;44.40;;
58731;SDS011;44508;44.626;21.182;2022-11-14T05:42:32;81.40;;;46.13;;
58731;SDS011;44508;44.626;21.182;2022-11-14T05:44:58;83.60;;;50.50;;
58731;SDS011;44508;44.626;21.182;2022-11-14T05:47:24;86.32;;;49.63;;
58731;SDS011;44508;44.626;21.182;2022-11-14T05:49:50;92.25;;;49.72;;
58731;SDS011;44508;44.626;21.182;2022-11-14T05:52:16;107.70;;;62.50;;
58731;SDS011;44508;44.626;21.182;2022-11-14T05:54:42;82.18;;;49.08;;
58731;SDS011;44508;44.626;21.182;2022-11-14T05:57:08;96.03;;;57.22;;
58731;SDS011;44508;44.626;21.182;2022-11-14T05:59:34;97.25;;;54.22;;
58731;SDS011;44508;44.626;21.182;2022-11-14T06:02:00;103.82;;;60.35;;
58731;SDS011;44508;44.626;21.182;2022-11-14T06:04:26;116.38;;;69.18;;
58731;SDS011;44508;44.626;21.182;2022-11-14T06:06:52;137.27;;;77.50;;
58731;SDS011;44508;44.626;21.182;2022-11-14T06:09:18;135.73;;;76.25;;
58731;SDS011;44508;44.626;21.182;2022-11-14T06:11:44;149.20;;;83.35;;
58731;SDS011;44508;44.626;21.182;2022-11-14T06:14:10;129.32;;;76.97;;
58731;SDS011;44508;44.626;21.182;2022-11-14T06:16:36;113.40;;;64.13;;
58731;SDS011;44508;44.626;21.182;2022-11-14T06:19:03;132.25;;;76.68;;
58731;SDS011;44508;44.626;21.182;2022-11-14T06:21:29;153.02;;;85.28;;
58731;SDS011;44508;44.626;21.182;2022-11-14T06:23:55;139.15;;;82.45;;
58731;SDS011;44508;44.626;21.182;2022-11-14T06:26:25;139.45;;;78.60;;
58731;SDS011;44508;44.626;21.182;2022-11-14T06:28:54;135.00;;;77.57;;
58731;SDS011;44508;44.626;21.182;2022-11-14T06:31:20;129.93;;;71.38;;
58731;SDS011;44508;44.626;21.182;2022-11-14T06:33:47;105.43;;;59.25;;
58731;SDS011;44508;44.626;21.182;2022-11-14T06:36:13;112.07;;;61.80;;
58731;SDS011;44508;44.626;21.182;2022-11-14T06:38:39;100.25;;;55.75;;
58731;SDS011;44508;44.626;21.182;2022-11-14T06:43:35;64.05;;;40.40;;
58731;SDS011;44508;44.626;21.182;2022-11-14T06:46:02;69.15;;;38.47;;
58731;SDS011;44508;44.626;21.182;2022-11-14T06:48:28;56.95;;;34.63;;
58731;SDS011;44508;44.626;21.182;2022-11-14T06:50:55;48.70;;;30.83;;
58731;SDS011;44508;44.626;21.182;2022-11-14T06:53:21;48.88;;;29.27;;
58731;SDS011;44508;44.626;21.182;2022-11-14T06:55:52;41.88;;;28.30;;
58731;SDS011;44508;44.626;21.182;2022-11-14T06:58:18;46.65;;;26.25;;
58731;SDS011;44508;44.626;21.182;2022-11-14T07:00:44;48.63;;;27.60;;
58731;SDS011;44508;44.626;21.182;2022-11-14T07:03:10;51.47;;;29.35;;
58731;SDS011;44508;44.626;21.182;2022-11-14T07:05:36;54.35;;;29.95;;
58731;SDS011;44508;44.626;21.182;2022-11-14T07:08:02;63.45;;;34.10;;
58731;SDS011;44508;44.626;21.182;2022-11-14T07:10:28;67.35;;;33.05;;
58731;SDS011;44508;44.626;21.182;2022-11-14T07:12:54;64.35;;;31.58;;
58731;SDS011;44508;44.626;21.182;2022-11-14T07:15:21;61.83;;;31.20;;
58731;SDS011;44508;44.626;21.182;2022-11-14T07:17:47;49.13;;;28.52;;
58731;SDS011;44508;44.626;21.182;2022-11-14T07:20:13;43.50;;;25.15;;
58731;SDS011;44508;44.626;21.182;2022-11-14T07:22:40;38.70;;;24.20;;
58731;SDS011;44508;44.626;21.182;2022-11-14T07:25:06;36.80;;;22.60;;
58731;SDS011;44508;44.626;21.182;2022-11-14T07:27:32;42.78;;;24.63;;
58731;SDS011;44508;44.626;21.182;2022-11-14T07:29:58;44.35;;;23.70;;
58731;SDS011;44508;44.626;21.182;2022-11-14T07:32:24;45.50;;;26.10;;
58731;SDS011;44508;44.626;21.182;2022-11-14T07:34:50;53.78;;;26.30;;
58731;SDS011;44508;44.626;21.182;2022-11-14T07:37:16;47.80;;;25.95;;
58731;SDS011;44508;44.626;21.182;2022-11-14T07:39:42;50.33;;;25.48;;
58731;SDS011;44508;44.626;21.182;2022-11-14T07:42:09;49.28;;;25.20;;
58731;SDS011;44508;44.626;21.182;2022-11-14T07:44:36;48.03;;;24.10;;
58731;SDS011;44508;44.626;21.182;2022-11-14T07:47:02;41.55;;;22.73;;
58731;SDS011;44508;44.626;21.182;2022-11-14T07:49:28;43.60;;;23.30;;
58731;SDS011;44508;44.626;21.182;2022-11-14T07:51:54;43.95;;;24.95;;
58731;SDS011;44508;44.626;21.182;2022-11-14T07:54:20;44.90;;;24.80;;
58731;SDS011;44508;44.626;21.182;2022-11-14T07:56:46;41.42;;;24.10;;
58731;SDS011;44508;44.626;21.182;2022-11-14T07:59:12;43.92;;;23.63;;
58731;SDS011;44508;44.626;21.182;2022-11-14T08:01:38;47.58;;;24.65;;
58731;SDS011;44508;44.626;21.182;2022-11-14T08:04:04;45.95;;;21.42;;
58731;SDS011;44508;44.626;21.182;2022-11-14T08:06:31;32.53;;;20.55;;
58731;SDS011;44508;44.626;21.182;2022-11-14T08:08:59;32.97;;;18.33;;
58731;SDS011;44508;44.626;21.182;2022-11-14T08:11:28;31.33;;;17.05;;
58731;SDS011;44508;44.626;21.182;2022-11-14T08:14:12;25.73;;;17.27;;
58731;SDS011;44508;44.626;21.182;2022-11-14T08:16:38;23.40;;;16.85;;
58731;SDS011;44508;44.626;21.182;2022-11-14T08:19:04;21.40;;;16.23;;
58731;SDS011;44508;44.626;21.182;2022-11-14T08:21:31;22.42;;;16.45;;
58731;SDS011;44508;44.626;21.182;2022-11-14T08:23:57;21.70;;;15.95;;
58731;SDS011;44508;44.626;21.182;2022-11-14T08:26:23;21.35;;;15.55;;
58731;SDS011;44508;44.626;21.182;2022-11-14T08:28:52;25.42;;;16.77;;
58731;SDS011;44508;44.626;21.182;2022-11-14T08:31:19;26.02;;;15.60;;
58731;SDS011;44508;44.626;21.182;2022-11-14T08:33:45;21.63;;;14.95;;
58731;SDS011;44508;44.626;21.182;2022-11-14T08:36:13;20.95;;;15.10;;
58731;SDS011;44508;44.626;21.182;2022-11-14T08:38:40;25.95;;;15.57;;
58731;SDS011;44508;44.626;21.182;2022-11-14T08:41:06;19.75;;;14.90;;
58731;SDS011;44508;44.626;21.182;2022-11-14T08:43:32;20.73;;;15.30;;
58731;SDS011;44508;44.626;21.182;2022-11-14T08:45:58;21.17;;;15.27;;
58731;SDS011;44508;44.626;21.182;2022-11-14T08:48:25;20.92;;;15.98;;
58731;SDS011;44508;44.626;21.182;2022-11-14T08:50:51;21.73;;;16.13;;
58731;SDS011;44508;44.626;21.182;2022-11-14T08:53:17;21.70;;;16.10;;
58731;SDS011;44508;44.626;21.182;2022-11-14T08:55:46;21.33;;;16.27;;
58731;SDS011;44508;44.626;21.182;2022-11-14T08:58:12;24.75;;;16.70;;
58731;SDS011;44508;44.626;21.182;2022-11-14T09:00:39;21.48;;;15.43;;
58731;SDS011;44508;44.626;21.182;2022-11-14T09:03:11;35.05;;;21.42;;
58731;SDS011;44508;44.626;21.182;2022-11-14T09:05:38;40.75;;;22.42;;
58731;SDS011;44508;44.626;21.182;2022-11-14T09:08:04;38.80;;;20.45;;
58731;SDS011;44508;44.626;21.182;2022-11-14T09:10:31;37.38;;;21.20;;
58731;SDS011;44508;44.626;21.182;2022-11-14T09:12:58;41.80;;;22.95;;
58731;SDS011;44508;44.626;21.182;2022-11-14T09:15:25;54.55;;;27.58;;
58731;SDS011;44508;44.626;21.182;2022-11-14T09:17:52;62.50;;;29.60;;
58731;SDS011;44508;44.626;21.182;2022-11-14T09:20:18;63.25;;;29.33;;
58731;SDS011;44508;44.626;21.182;2022-11-14T09:22:44;47.42;;;22.48;;
58731;SDS011;44508;44.626;21.182;2022-11-14T09:25:10;46.97;;;24.08;;
58731;SDS011;44508;44.626;21.182;2022-11-14T09:27:36;27.67;;;17.73;;
58731;SDS011;44508;44.626;21.182;2022-11-14T09:30:03;23.05;;;16.33;;
58731;SDS011;44508;44.626;21.182;2022-11-14T09:32:29;25.92;;;17.90;;
58731;SDS011;44508;44.626;21.182;2022-11-14T09:34:55;26.27;;;15.98;;
58731;SDS011;44508;44.626;21.182;2022-11-14T09:37:21;19.80;;;14.90;;
58731;SDS011;44508;44.626;21.182;2022-11-14T09:39:47;22.13;;;16.38;;
58731;SDS011;44508;44.626;21.182;2022-11-14T09:47:09;25.20;;;16.58;;
58731;SDS011;44508;44.626;21.182;2022-11-14T09:49:40;25.42;;;16.67;;
58731;SDS011;44508;44.626;21.182;2022-11-14T09:52:10;23.60;;;16.70;;
58731;SDS011;44508;44.626;21.182;2022-11-14T09:55:02;20.95;;;14.95;;
58731;SDS011;44508;44.626;21.182;2022-11-14T09:57:25;22.45;;;16.02;;
58731;SDS011;44508;44.626;21.182;2022-11-14T09:59:52;23.30;;;15.80;;
58731;SDS011;44508;44.626;21.182;2022-11-14T10:05:08;17.95;;;14.40;;
58731;SDS011;44508;44.626;21.182;2022-11-14T10:15:28;18.33;;;13.77;;
58731;SDS011;44508;44.626;21.182;2022-11-14T10:18:02;16.70;;;13.45;;
58731;SDS011;44508;44.626;21.182;2022-11-14T10:20:47;16.48;;;13.90;;
58731;SDS011;44508;44.626;21.182;2022-11-14T10:25:53;16.75;;;13.73;;
58731;SDS011;44508;44.626;21.182;2022-11-14T10:39:45;18.45;;;12.82;;
58731;SDS011;44508;44.626;21.182;2022-11-14T10:47:47;17.40;;;13.30;;
58731;SDS011;44508;44.626;21.182;2022-11-14T10:50:19;15.23;;;12.00;;
58731;SDS011;44508;44.626;21.182;2022-11-14T10:52:46;17.05;;;12.48;;
58731;SDS011;44508;44.626;21.182;2022-11-14T10:55:13;16.30;;;12.13;;
58731;SDS011;44508;44.626;21.182;2022-11-14T10:57:40;13.95;;;11.88;;
58731;SDS011;44508;44.626;21.182;2022-11-14T11:00:10;15.35;;;11.15;;
58731;SDS011;44508;44.626;21.182;2022-11-14T11:02:48;13.98;;;12.38;;
58731;SDS011;44508;44.626;21.182;2022-11-14T11:05:15;14.13;;;11.70;;
58731;SDS011;44508;44.626;21.182;2022-11-14T11:07:44;16.35;;;11.13;;
58731;SDS011;44508;44.626;21.182;2022-11-14T11:10:29;18.67;;;12.82;;
58731;SDS011;44508;44.626;21.182;2022-11-14T11:13:14;16.13;;;11.57;;
58731;SDS011;44508;44.626;21.182;2022-11-14T11:15:54;16.13;;;12.20;;
58731;SDS011;44508;44.626;21.182;2022-11-14T11:18:24;17.15;;;12.60;;
58731;SDS011;44508;44.626;21.182;2022-11-14T11:23:53;16.70;;;11.65;;
58731;SDS011;44508;44.626;21.182;2022-11-14T11:26:21;12.77;;;10.85;;
58731;SDS011;44508;44.626;21.182;2022-11-14T11:29:01;13.60;;;11.43;;
58731;SDS011;44508;44.626;21.182;2022-11-14T11:31:27;17.33;;;11.93;;
58731;SDS011;44508;44.626;21.182;2022-11-14T11:33:53;16.48;;;11.60;;
58731;SDS011;44508;44.626;21.182;2022-11-14T11:36:21;15.18;;;11.43;;
58731;SDS011;44508;44.626;21.182;2022-11-14T11:38:47;15.95;;;11.60;;
58731;SDS011;44508;44.626;21.182;2022-11-14T11:46:46;15.07;;;11.23;;
58731;SDS011;44508;44.626;21.182;2022-11-14T11:49:17;12.88;;;10.60;;
58731;SDS011;44508;44.626;21.182;2022-11-14T11:51:44;12.60;;;10.75;;
58731;SDS011;44508;44.626;21.182;2022-11-14T11:54:17;15.55;;;10.85;;
58731;SDS011;44508;44.626;21.182;2022-11-14T11:56:44;12.43;;;10.32;;
58731;SDS011;44508;44.626;21.182;2022-11-14T12:01:45;15.48;;;10.55;;
58731;SDS011;44508;44.626;21.182;2022-11-14T12:04:11;14.23;;;10.45;;
58731;SDS011;44508;44.626;21.182;2022-11-14T12:06:40;11.40;;;10.20;;
58731;SDS011;44508;44.626;21.182;2022-11-14T12:09:14;14.20;;;10.73;;
58731;SDS011;44508;44.626;21.182;2022-11-14T12:19:56;12.23;;;10.00;;
58731;SDS011;44508;44.626;21.182;2022-11-14T12:30:24;13.35;;;10.80;;
58731;SDS011;44508;44.626;21.182;2022-11-14T12:32:53;13.25;;;11.20;;
58731;SDS011;44508;44.626;21.182;2022-11-14T12:35:23;15.82;;;11.25;;
58731;SDS011;44508;44.626;21.182;2022-11-14T12:37:51;13.70;;;11.48;;
58731;SDS011;44508;44.626;21.182;2022-11-14T12:42:46;13.07;;;10.77;;
58731;SDS011;44508;44.626;21.182;2022-11-14T12:45:56;16.70;;;11.70;;
58731;SDS011;44508;44.626;21.182;2022-11-14T12:50:47;15.45;;;11.95;;
58731;SDS011;44508;44.626;21.182;2022-11-14T12:56:06;15.55;;;11.45;;
58731;SDS011;44508;44.626;21.182;2022-11-14T13:06:33;20.27;;;14.73;;
58731;SDS011;44508;44.626;21.182;2022-11-14T13:14:19;15.88;;;12.68;;
58731;SDS011;44508;44.626;21.182;2022-11-14T13:20:21;17.75;;;13.50;;
58731;SDS011;44508;44.626;21.182;2022-11-14T13:33:47;25.92;;;19.67;;
58731;SDS011;44508;44.626;21.182;2022-11-14T13:46:33;15.50;;;11.68;;
58731;SDS011;44508;44.626;21.182;2022-11-14T13:51:49;17.00;;;12.27;;
58731;SDS011;44508;44.626;21.182;2022-11-14T13:54:16;21.10;;;13.48;;
58731;SDS011;44508;44.626;21.182;2022-11-14T13:57:01;22.10;;;15.88;;
58731;SDS011;44508;44.626;21.182;2022-11-14T14:10:15;20.63;;;14.15;;
58731;SDS011;44508;44.626;21.182;2022-11-14T14:22:38;18.58;;;13.38;;
58731;SDS011;44508;44.626;21.182;2022-11-14T14:25:09;18.35;;;13.10;;
58731;SDS011;44508;44.626;21.182;2022-11-14T14:27:49;21.08;;;14.77;;
58731;SDS011;44508;44.626;21.182;2022-11-14T14:30:18;17.73;;;13.63;;
58731;SDS011;44508;44.626;21.182;2022-11-14T14:35:50;21.25;;;14.98;;
58731;SDS011;44508;44.626;21.182;2022-11-14T14:38:34;20.05;;;14.48;;
58731;SDS011;44508;44.626;21.182;2022-11-14T14:41:00;19.63;;;14.00;;
58731;SDS011;44508;44.626;21.182;2022-11-14T14:43:33;22.25;;;16.00;;
58731;SDS011;44508;44.626;21.182;2022-11-14T14:46:00;21.20;;;15.20;;
58731;SDS011;44508;44.626;21.182;2022-11-14T14:48:27;23.35;;;16.50;;
58731;SDS011;44508;44.626;21.182;2022-11-14T14:50:55;21.75;;;14.50;;
58731;SDS011;44508;44.626;21.182;2022-11-14T14:53:31;21.05;;;14.35;;
58731;SDS011;44508;44.626;21.182;2022-11-14T14:58:28;22.80;;;17.92;;
58731;SDS011;44508;44.626;21.182;2022-11-14T15:00:56;26.92;;;19.17;;
58731;SDS011;44508;44.626;21.182;2022-11-14T15:03:23;27.95;;;20.33;;
58731;SDS011;44508;44.626;21.182;2022-11-14T15:05:56;30.52;;;21.33;;
58731;SDS011;44508;44.626;21.182;2022-11-14T15:08:23;31.80;;;21.75;;
58731;SDS011;44508;44.626;21.182;2022-11-14T15:10:50;30.27;;;22.08;;
58731;SDS011;44508;44.626;21.182;2022-11-14T15:13:17;37.58;;;22.25;;
58731;SDS011;44508;44.626;21.182;2022-11-14T15:15:43;28.20;;;19.45;;
58731;SDS011;44508;44.626;21.182;2022-11-14T15:18:13;33.30;;;22.58;;
58731;SDS011;44508;44.626;21.182;2022-11-14T15:20:41;33.17;;;22.70;;
58731;SDS011;44508;44.626;21.182;2022-11-14T15:25:33;29.42;;;18.38;;
58731;SDS011;44508;44.626;21.182;2022-11-14T15:27:59;30.05;;;19.95;;
58731;SDS011;44508;44.626;21.182;2022-11-14T15:30:30;25.02;;;18.45;;
58731;SDS011;44508;44.626;21.182;2022-11-14T15:32:59;24.80;;;17.35;;
58731;SDS011;44508;44.626;21.182;2022-11-14T15:35:36;25.00;;;17.88;;
58731;SDS011;44508;44.626;21.182;2022-11-14T15:38:16;25.38;;;17.42;;
58731;SDS011;44508;44.626;21.182;2022-11-14T15:40:44;27.15;;;19.48;;
58731;SDS011;44508;44.626;21.182;2022-11-14T15:45:55;24.58;;;18.52;;
58731;SDS011;44508;44.626;21.182;2022-11-14T15:48:21;26.33;;;18.52;;
58731;SDS011;44508;44.626;21.182;2022-11-14T15:50:48;25.35;;;18.08;;
58731;SDS011;44508;44.626;21.182;2022-11-14T15:53:21;26.27;;;19.42;;
58731;SDS011;44508;44.626;21.182;2022-11-14T15:55:48;25.65;;;19.10;;
58731;SDS011;44508;44.626;21.182;2022-11-14T15:58:14;31.67;;;20.13;;
58731;SDS011;44508;44.626;21.182;2022-11-14T16:00:44;24.70;;;18.25;;
58731;SDS011;44508;44.626;21.182;2022-11-14T16:03:11;28.45;;;19.80;;
58731;SDS011;44508;44.626;21.182;2022-11-14T16:05:40;30.75;;;20.75;;
58731;SDS011;44508;44.626;21.182;2022-11-14T16:08:07;34.35;;;22.52;;
58731;SDS011;44508;44.626;21.182;2022-11-14T16:10:34;31.42;;;20.75;;
58731;SDS011;44508;44.626;21.182;2022-11-14T16:13:00;32.97;;;22.33;;
58731;SDS011;44508;44.626;21.182;2022-11-14T16:15:26;34.22;;;21.67;;
58731;SDS011;44508;44.626;21.182;2022-11-14T16:17:53;32.38;;;22.70;;
58731;SDS011;44508;44.626;21.182;2022-11-14T16:20:20;33.05;;;22.33;;
58731;SDS011;44508;44.626;21.182;2022-11-14T16:22:47;34.08;;;22.30;;
58731;SDS011;44508;44.626;21.182;2022-11-14T16:25:17;31.15;;;21.38;;
58731;SDS011;44508;44.626;21.182;2022-11-14T16:27:44;32.78;;;21.88;;
58731;SDS011;44508;44.626;21.182;2022-11-14T16:30:11;36.03;;;22.50;;
58731;SDS011;44508;44.626;21.182;2022-11-14T16:32:40;34.90;;;23.38;;
58731;SDS011;44508;44.626;21.182;2022-11-14T16:37:39;34.80;;;22.58;;
58731;SDS011;44508;44.626;21.182;2022-11-14T16:40:05;35.08;;;22.90;;
58731;SDS011;44508;44.626;21.182;2022-11-14T16:42:32;34.15;;;23.60;;